• Join FlightAware (Why Join?)
  • Login
  • US Flag 
06:41PM EST


 

Airport Tracker/Info


-or-


 

Live Flight TrackerFlight Track Log ✈ ASQ4252 ✈ 23-Jul-2013 ✈ KXNA - KORD

Flight Track Log - Related Links

Times and Time Zones

All times are in EDT time to prevent confusion due to time zone crossing. See the ASQ4252 flight status page for this flight to view local times or setup timezone preferences in your user account.

Time Position Orientation Groundspeed Altitude Reporting Facility
EDT Latitude Longitude Course Direction KTS MPH feet Rate Location/Type
11:08AM 36.1794 -94.2964 178° South 207 238 4,800  Level Kansas City Center
11:09AM 36.1644 -94.3658 255° West 231 266 7,000 2,040 Climbing Kansas City Center
11:10AM 36.1889 -94.4408 292° West 246 283 9,100 1,680 Climbing Kansas City Center
11:11AM 36.8408 -94.4172 60° Northeast  Level FlightAware Approximate
11:11AM 36.2536 -94.4994 324° Northwest 275 316 10,500  Level Kansas City Center
11:12AM 36.8834 -94.3251 60° Northeast  Level FlightAware Approximate
11:12AM 36.3436 -94.5206 349° North 321 369 11,900  Level Kansas City Center
11:13AM 36.4606 -94.5031 North 353 406 14,000 1,740 Climbing Kansas City Center
11:14AM 36.5583 -94.4847 North 355 409 15,600 1,500 Climbing Kansas City Center
11:15AM 36.6597 -94.4669 North 362 417 17,100 1,380 Climbing Kansas City Center
11:16AM 36.7406 -94.3828 40° Northeast 384 442 18,500 1,200 Climbing Kansas City Center
11:17AM 36.8053 -94.2706 54° Northeast 395 455 19,600 1,380 Climbing Kansas City Center
11:18AM 36.8722 -94.1581 53° Northeast 402 463 21,400 1,980 Climbing Kansas City Center
11:19AM 36.9506 -94.0283 53° Northeast 392 451 23,700 1,800 Climbing Kansas City Center
11:20AM 37.0133 -93.9225 53° Northeast 383 441 25,200 1,320 Climbing Kansas City Center
11:21AM 37.0761 -93.8167 53° Northeast 380 437 26,500 1,200 Climbing Kansas City Center
11:22AM 37.1375 -93.7078 55° Northeast 382 440 27,800 1,260 Climbing Kansas City Center
11:23AM 37.2003 -93.5972 54° Northeast 386 444 29,200 1,380 Climbing Kansas City Center
11:24AM 37.2639 -93.4878 54° Northeast 387 445 30,700 1,560 Climbing Kansas City Center
11:25AM 37.3408 -93.3597 53° Northeast 385 443 32,500 1,500 Climbing Kansas City Center
11:26AM 37.4167 -93.2778 41° Northeast 362 417 33,900 1,200 Climbing Kansas City Center
11:27AM 37.4981 -93.2017 37° Northeast 361 415 35,000 480 Climbing Kansas City Center
11:28AM 37.5806 -93.1247 36° Northeast 363 418 35,000  Level Kansas City Center
11:29AM 37.6739 -93.0375 36° Northeast 396 456 35,000  Level Kansas City Center
11:30AM 37.7711 -92.9486 36° Northeast 424 488 35,000  Level Kansas City Center
11:32AM 37.8722 -92.8544 36° Northeast 443 510 35,000  Level Kansas City Center
11:33AM 37.9914 -92.7428 36° Northeast 442 509 35,000  Level Kansas City Center
11:34AM 38.0819 -92.6575 37° Northeast 442 509 35,000  Level Kansas City Center
11:35AM 38.1933 -92.5539 36° Northeast 445 512 35,000  Level Kansas City Center
11:36AM 38.2953 -92.4581 36° Northeast 448 516 35,000  Level Kansas City Center
11:37AM 38.3958 -92.3603 37° Northeast 450 518 35,000  Level Kansas City Center
11:38AM 38.4972 -92.2639 37° Northeast 451 519 35,000  Level Kansas City Center
11:39AM 38.5978 -92.1664 37° Northeast 451 519 35,000  Level Kansas City Center
11:40AM 38.6992 -92.0692 37° Northeast 452 520 35,000  Level Kansas City Center
11:41AM 38.7997 -91.9731 37° Northeast 450 518 35,000  Level Kansas City Center
11:42AM 38.9208 -91.8558 37° Northeast 452 520 35,000  Level Kansas City Center
11:43AM 39.0222 -91.7572 37° Northeast 454 522 35,000  Level Kansas City Center
11:44AM 39.1314 -91.6517 37° Northeast 463 533 35,000  Level Kansas City Center
11:45AM 39.2344 -91.5494 38° Northeast 466 536 35,000  Level Kansas City Center
11:46AM 39.3406 -91.4461 37° Northeast 470 541 35,000  Level Kansas City Center
11:47AM 39.4458 -91.3419 37° Northeast 474 545 35,000  Level Kansas City Center
11:48AM 39.5517 -91.2386 37° Northeast 476 548 35,000  Level Kansas City Center
11:49AM 39.6575 -91.1319 38° Northeast 477 549 35,000 -360 Level Kansas City Center
11:50AM 39.7750 -91.0147 37° Northeast 472 543 34,300 -1,020 Descending Kansas City Center
11:51AM 39.8767 -90.9122 38° Northeast 473 544 32,900 -1,440 Descending Kansas City Center
11:52AM 39.9819 -90.8067 38° Northeast 476 548 31,400 -1,500 Descending Kansas City Center
11:53AM 40.0875 -90.6986 38° Northeast 479 551 29,900 -1,200 Descending Kansas City Center
11:54AM 40.2156 -90.5694 38° Northeast 483 556 29,000 -480 Descending Kansas City Center
11:55AM 40.3156 -90.4672 38° Northeast 464 534 29,000  Level Kansas City Center
11:56AM 40.3958 -90.3850 38° Northeast 459 528 29,000  Level Chicago Center
11:57AM 40.5197 -90.2578 38° Northeast 467 537 29,000  Level Chicago Center
11:58AM 40.6150 -90.1583 38° Northeast 469 540 29,000  Level Chicago Center
11:59AM 40.7194 -90.0517 38° Northeast 476 548 29,000  Level Chicago Center
12:00PM 40.8456 -89.9222 38° Northeast 480 552 29,000 -360 Level Chicago Center
12:01PM 40.9464 -89.8133 39° Northeast 474 545 28,300 -1,500 Descending Chicago Center
12:02PM 41.0439 -89.7117 38° Northeast 466 536 26,000 -2,160 Descending Chicago Center
12:03PM 41.1464 -89.6008 39° Northeast 472 543 23,800 -2,160 Descending Chicago Center
12:05PM 41.2161 -89.4519 58° Northeast 480 552 21,500 -2,280 Descending Chicago Center
12:06PM 41.2756 -89.3039 62° Northeast 461 531 19,100 -2,580 Descending Chicago Center
12:07PM 41.3383 -89.1414 63° Northeast 415 478 16,200 -2,520 Descending Chicago Center
12:08PM 41.3925 -89.0086 61° Northeast 410 472 14,000 -2,160 Descending Chicago Center
12:09PM 41.4456 -88.8750 62° Northeast 411 473 11,800 -1,500 Descending Chicago Center
12:10PM 41.4947 -88.7506 62° Northeast 388 447 11,000 -360 Descending Chicago Center
12:11PM 41.5364 -88.6450 62° Northeast 326 375 11,100  Climbing Chicago Center
12:12PM 41.5794 -88.5161 66° East 317 365 11,100 -840 Level Chicago Center
12:13PM 41.6064 -88.4056 72° East 313 360 9,400 -1,500 Descending Chicago Center
12:14PM 41.6333 -88.2994 71° East 304 350 8,000 -900 Descending Chicago Center
12:15PM 41.6783 -88.2133 55° Northeast 290 334 7,600 -960 Descending Chicago Center
12:16PM 41.7411 -88.1522 36° Northeast 277 319 6,100 -1,380 Descending Chicago Center
12:17PM 41.7931 -88.0872 43° Northeast 264 304 4,800 -1,260 Descending Chicago Center